createdAt,value
2023-02-05T00:04:23.574Z,-2.8
2023-02-05T00:10:02.054Z,-2.8
2023-02-05T00:15:24.687Z,-2.8
2023-02-05T00:21:02.248Z,-2.9
2023-02-05T00:26:41.293Z,-2.9
2023-02-05T00:32:20.278Z,-2.9
2023-02-05T00:37:58.016Z,-2.9
2023-02-05T00:43:36.630Z,-2.9
2023-02-05T00:49:14.242Z,-3
2023-02-05T00:54:52.833Z,-3
2023-02-05T01:00:32.256Z,-3
2023-02-05T01:06:09.966Z,-3
2023-02-05T01:11:47.249Z,-3.1
2023-02-05T01:17:25.729Z,-3.1
2023-02-05T01:23:03.737Z,-3.1
2023-02-05T01:28:42.066Z,-3.2
2023-02-05T01:34:21.348Z,-3.2
2023-02-05T01:39:59.038Z,-3.2
2023-02-05T01:45:21.361Z,-3.2
2023-02-05T01:51:14.387Z,-3.2
2023-02-05T01:56:51.447Z,-3.3
2023-02-05T02:02:28.041Z,-3.3
2023-02-05T02:08:07.056Z,-3.3
2023-02-05T02:13:44.817Z,-3.4
2023-02-05T02:19:22.002Z,-3.4
2023-02-05T02:25:00.659Z,-3.4
2023-02-05T02:30:23.635Z,-3.4
2023-02-05T02:36:01.781Z,-3.5
2023-02-05T02:47:03.129Z,-3.7
2023-02-05T02:57:32.757Z,-3.8
2023-02-05T03:03:15.648Z,-3.9
2023-02-05T03:08:22.779Z,-4
2023-02-05T03:13:30.295Z,-4.1
2023-02-05T03:18:52.819Z,-4.2
2023-02-05T03:24:15.000Z,-4.2
2023-02-05T03:29:53.625Z,-4.3
2023-02-05T03:35:15.955Z,-4.3
2023-02-05T03:40:54.468Z,-4.3
2023-02-05T03:46:32.994Z,-4.3
2023-02-05T03:52:16.824Z,-4.3
2023-02-05T03:57:38.089Z,-4.3
2023-02-05T04:03:16.491Z,-4.3
2023-02-05T04:08:38.704Z,-4.4
2023-02-05T04:14:02.234Z,-4.4
2023-02-05T04:19:25.405Z,-4.4
2023-02-05T04:24:47.905Z,-4.4
2023-02-05T04:30:26.238Z,-4.5
2023-02-05T04:36:05.406Z,-4.6
2023-02-05T04:41:43.128Z,-4.6
2023-02-05T04:47:05.147Z,-4.7
2023-02-05T04:52:42.724Z,-4.8
2023-02-05T04:58:20.662Z,-4.8
2023-02-05T05:03:42.864Z,-4.8
2023-02-05T05:09:20.860Z,-4.8
2023-02-05T05:14:43.191Z,-4.8
2023-02-05T05:20:21.969Z,-4.8
2023-02-05T05:26:00.298Z,-4.9
2023-02-05T05:31:37.793Z,-4.9
2023-02-05T05:37:15.617Z,-4.9
2023-02-05T05:42:53.777Z,-5
2023-02-05T05:48:32.170Z,-4.9
2023-02-05T05:54:08.964Z,-5
2023-02-05T05:59:47.783Z,-4.9
2023-02-05T06:05:25.164Z,-4.9
2023-02-05T06:11:03.288Z,-4.8
2023-02-05T06:16:28.846Z,-4.8
2023-02-05T06:22:06.878Z,-4.8
2023-02-05T06:27:44.368Z,-4.8
2023-02-05T06:33:23.413Z,-4.7
2023-02-05T06:39:15.587Z,-4.6
2023-02-05T06:44:53.879Z,-4.6
2023-02-05T06:50:32.606Z,-4.6
2023-02-05T06:55:55.021Z,-4.6
2023-02-05T07:01:32.942Z,-4.5
2023-02-05T07:07:11.496Z,-4.4
2023-02-05T07:12:34.619Z,-4.4
2023-02-05T07:18:12.505Z,-4.4
2023-02-05T07:23:35.321Z,-4.1
2023-02-05T07:29:13.446Z,-4.1
2023-02-05T07:34:51.520Z,-4
2023-02-05T07:40:14.854Z,-4.1
2023-02-05T07:51:16.196Z,-3.6
2023-02-05T07:56:54.283Z,-3.4
2023-02-05T08:02:46.301Z,-3.4
2023-02-05T08:08:25.160Z,-3.3
2023-02-05T08:14:04.416Z,-2.8
2023-02-05T08:19:48.810Z,-2.8
2023-02-05T08:25:26.743Z,-2.4
2023-02-05T08:31:05.124Z,-2.3
2023-02-05T08:36:27.903Z,-2.3
2023-02-05T08:41:50.199Z,-2.1
2023-02-05T08:47:39.944Z,-2.1
2023-02-05T08:53:19.445Z,-2
2023-02-05T08:58:58.488Z,-1.9
2023-02-05T09:04:37.206Z,-1.5
2023-02-05T09:23:08.373Z,-1.8
2023-02-05T09:28:47.290Z,-1.6
2023-02-05T09:34:25.535Z,-1.9
2023-02-05T09:41:07.908Z,-1.8
2023-02-05T09:46:47.563Z,-2
2023-02-05T09:52:26.493Z,-1.9
2023-02-05T09:58:06.516Z,-2
2023-02-05T10:03:51.333Z,-2.1
2023-02-05T10:09:28.387Z,-1.9
2023-02-05T10:14:50.486Z,-1.8
2023-02-05T10:20:29.582Z,-2.1
2023-02-05T10:26:07.427Z,-1.9
2023-02-05T10:31:46.296Z,-2
2023-02-05T10:37:25.220Z,-1.8
2023-02-05T10:42:46.743Z,-1.6
2023-02-05T10:48:28.177Z,-1.7
2023-02-05T10:54:06.686Z,-1.5
2023-02-05T10:59:44.178Z,-1.3
2023-02-05T11:05:22.694Z,-1.3
2023-02-05T11:16:25.099Z,-0.9
2023-02-05T11:22:03.345Z,-0.8
2023-02-05T11:27:42.047Z,-0.8
2023-02-05T11:33:45.000Z,-1
2023-02-05T11:39:07.658Z,-1.1
2023-02-05T11:44:47.107Z,-1
2023-02-05T11:55:47.645Z,-0.5
2023-02-05T12:01:37.267Z,-0.4
2023-02-05T12:07:15.139Z,-1.7
2023-02-05T12:12:53.023Z,-1.5
2023-02-05T12:18:34.290Z,-1.6
2023-02-05T12:24:11.173Z,-1.6
2023-02-05T12:29:34.300Z,-1.8
2023-02-05T12:35:13.807Z,-1.5
2023-02-05T12:46:28.171Z,-1.3
2023-02-05T12:52:06.303Z,-0.8
2023-02-05T12:57:43.680Z,-0.8
2023-02-05T13:03:21.784Z,-0.6
2023-02-05T13:09:00.720Z,-0.8
2023-02-05T13:14:39.094Z,-0.8
2023-02-05T13:20:17.474Z,-1.4
2023-02-05T13:26:03.008Z,-2
2023-02-05T13:31:40.915Z,-2.4
2023-02-05T13:37:23.724Z,-2.6
2023-02-05T13:43:05.648Z,-2.8
2023-02-05T13:48:45.400Z,-2.9
2023-02-05T13:54:23.475Z,-3.2
2023-02-05T13:59:46.613Z,-3.1
2023-02-05T14:05:25.147Z,-3
2023-02-05T14:11:09.141Z,-3.4
2023-02-05T14:16:53.958Z,-3.4
2023-02-05T14:22:31.746Z,-3.5
2023-02-05T14:27:57.024Z,-3.6
2023-02-05T14:39:10.671Z,-3.8
2023-02-05T14:44:39.209Z,-3.9
2023-02-05T14:50:18.208Z,-3.9
2023-02-05T14:55:40.265Z,-4
2023-02-05T15:01:18.722Z,-4.1
2023-02-05T15:06:28.873Z,-4.1
2023-02-05T15:12:06.896Z,-4.2
2023-02-05T15:17:45.294Z,-4.3
2023-02-05T15:23:14.008Z,-4.3
2023-02-05T15:28:52.583Z,-4.3
2023-02-05T15:34:15.361Z,-4.3
2023-02-05T15:39:53.663Z,-4.3
2023-02-05T15:45:31.395Z,-4.3
2023-02-05T15:51:09.120Z,-4.3
2023-02-05T15:56:47.186Z,-4.4
2023-02-05T16:02:10.212Z,-4.4
2023-02-05T16:13:11.806Z,-4.4
2023-02-05T16:18:34.885Z,-4.4
2023-02-05T16:24:12.722Z,-4.4
2023-02-05T16:29:47.847Z,-4.4
2023-02-05T16:35:27.445Z,-4.5
2023-02-05T16:40:49.951Z,-4.5
2023-02-05T16:46:28.427Z,-4.6
2023-02-05T16:52:06.559Z,-4.6
2023-02-05T16:57:29.159Z,-4.6
2023-02-05T17:03:08.939Z,-4.6
2023-02-05T17:08:31.314Z,-4.8
2023-02-05T17:13:54.598Z,-4.8
2023-02-05T17:19:33.343Z,-4.9
2023-02-05T17:24:55.371Z,-4.8
2023-02-05T17:30:33.800Z,-4.8
2023-02-05T17:36:12.544Z,-4.8
2023-02-05T17:41:53.333Z,-4.8
2023-02-05T17:47:34.678Z,-4.8
2023-02-05T17:53:13.325Z,-4.8
2023-02-05T17:58:20.362Z,-4.8
2023-02-05T18:03:42.999Z,-4.8
2023-02-05T18:09:22.179Z,-4.8
2023-02-05T18:14:44.463Z,-4.8
2023-02-05T18:20:07.591Z,-4.8
2023-02-05T18:25:46.725Z,-4.8
2023-02-05T18:31:12.822Z,-4.8
2023-02-05T18:36:35.384Z,-4.8
2023-02-05T18:42:15.604Z,-4.8
2023-02-05T18:47:38.356Z,-4.8
2023-02-05T18:53:18.873Z,-4.9
2023-02-05T18:58:41.905Z,-4.9
2023-02-05T19:04:04.659Z,-4.9
2023-02-05T19:09:42.321Z,-4.9
2023-02-05T19:15:22.302Z,-4.9
2023-02-05T19:21:02.679Z,-4.9
2023-02-05T19:26:39.753Z,-4.9
2023-02-05T19:32:19.464Z,-4.9
2023-02-05T19:37:57.601Z,-5
2023-02-05T19:43:35.136Z,-4.9
2023-02-05T19:54:38.276Z,-5
2023-02-05T20:00:00.889Z,-5
2023-02-05T20:05:26.217Z,-5
2023-02-05T20:11:04.118Z,-5
2023-02-05T20:16:43.241Z,-4.9
2023-02-05T20:22:35.589Z,-4.9
2023-02-05T20:28:14.191Z,-4.9
2023-02-05T20:33:52.606Z,-4.9
2023-02-05T20:39:31.138Z,-4.9
2023-02-05T20:45:09.703Z,-4.9
2023-02-05T20:50:46.778Z,-4.9
2023-02-05T20:56:24.749Z,-5
2023-02-05T21:02:04.194Z,-5
2023-02-05T21:07:42.727Z,-5
2023-02-05T21:13:21.081Z,-5.1
2023-02-05T21:24:06.461Z,-5.1
2023-02-05T21:29:30.741Z,-5.1
2023-02-05T21:35:09.036Z,-5.2
2023-02-05T21:46:21.824Z,-5.2
2023-02-05T21:51:44.210Z,-5.1
2023-02-05T21:57:22.401Z,-5.1
2023-02-05T22:02:45.268Z,-5.1
2023-02-05T22:07:52.698Z,-5.1
2023-02-05T22:13:17.256Z,-5.2
2023-02-05T22:18:55.883Z,-5.2
2023-02-05T22:24:33.900Z,-5.3
2023-02-05T22:30:12.737Z,-5.3
2023-02-05T22:35:36.523Z,-5.3
2023-02-05T22:41:14.826Z,-5.4
2023-02-05T22:46:52.830Z,-5.4
2023-02-05T22:52:15.411Z,-5.4
2023-02-05T22:57:53.576Z,-5.4
2023-02-05T23:03:34.787Z,-5.4
2023-02-05T23:08:57.609Z,-5.4
2023-02-05T23:14:22.511Z,-5.4
2023-02-05T23:20:00.199Z,-5.5
2023-02-05T23:25:38.531Z,-5.4
2023-02-05T23:36:40.013Z,-5.5
2023-02-05T23:42:18.265Z,-5.5
2023-02-05T23:47:56.041Z,-5.5
2023-02-05T23:53:33.680Z,-5.5
2023-02-05T23:59:14.221Z,-5.5
